Warning: Javascript must be enabled to use all the features on this page!


Page Loading - Please Wait...

Click to hideNews Bulletins

Peak Streamflow for the Nation

USGS 07289350 BIG BLACK RIVER AT WEST, MS

Attala County, Mississippi
Hydrologic Unit Code 08060201
Latitude  33°11'40", Longitude  89°46'16" NAD83
Drainage area 1,027  square miles
Contributing drainage area 1,027  square miles
Gage datum 249.74 feet above NGVD29
Output formats
Table
Graph
Tab-separated file
peakfq (watstore) format
Reselect output format
Water
Year
Date Gage
Height
(feet)
Stream-
flow
(cfs)
1927 1926-12 26.00Bd 67,0002,7,Bd
1930 1930-05 26.00Bd 67,0002,7,Bd
1937 1937-01-23 19.28 10,500
1938 1938-04-08 19.00 10,000
1939 1939-04-07 19.00 10,000
1940 1940-07-06 21.20 25,000
1941 1940-12-17 20.00 18,000
1942 1941-11-24 18.30 9,500
1943 1942-12-30 18.90 12,500
1944 1944-03-30 22.36 33,500
1945 1945-03-05 19.92 17,500
1946 1946-02-10 22.60 35,000
1947 1947-04-12 22.64 35,500
1948 1948-02-14 22.33 33,000
1949 1949-01-05 23.813 44,500
1950 1950-03-15 21.353 26,000
1951 1951-03-30 24.093 47,000
1952 1951-12-22 20.103 18,500
1953 1953-02-24 19.583 16,000
1954 1954-05-03 20.613 21,500
1955 1955-04-14 21.163 25,000
1956 1956-03-17 19.803 17,000
1957 1957-02-02 20.103 18,500
1958 1957-11-18 21.863 29,000
1959 1959-02-14 19.303 14,000
1960 1960-03-03 20.003 18,000
1961 1961-04-01 20.603 22,000
1962 1961-12-19 24.033 45,000
1963 1963-07-20 19.363 15,000
1964 1964-04-28 19.973 18,000
1965 1965-02-12 22.773 36,000
1966 1966-04-30 20.203 19,000
1967 1967-01-10 22.253 33,000
1968 1968-05-23 18.90 12,000
1969 1968-12-19 21.80 29,000
1970 1969-12-31 22.10 31,000
1971 1971-02-22 21.48 28,000
1972 1972-01-05 23.08 33,800
1973 1973-03-16 25.11 57,700
1974 1973-12-25 21.20 16,700
1975 1975-03-15 22.12 24,300
1976 1976-03-31 20.00 11,000
1977 1977-03-04 22.36 26,400
1978 1978-05-09 22.04 23,600
1979 1979-04-13 24.27 48,000
1980 1979-11-26 23.13 35,300
1981 1981-04-02 19.03 8,800
1982 1982-04-22 21.15 21,500
1983 1983-05-21 26.08 71,200
1984 1983-12-05 24.48 50,500
1985 1984-10-25 21.20 20,800
1986 1986-03-22 18.28 6,520
1987 1987-03-01 21.82 25,200
1988 1988-04-03 18.22 6,330
1989 1989-01-14 22.44 30,100
1990 1990-01-21 20.15 14,500
1991 1991-04-30 24.39 49,400
1992 1991-12-04 22.42 30,000
1993 1993-04-03 19.23 10,100
1994 1994-02-12 22.83 29,700
1995 1995-04-23 24.76 47,500
1996 1996-04-23 21.17 20,600
1997 1997-03-03 22.87 30,400
1998 1998-05-30 19.81 12,700
1999 1999-01-23 21.16 20,500
2000 2000-04-04 25.80 54,700
2001 2001-01-20 23.32 38,100
2002 2001-11-30 22.27 26,400
2003 2003-02-24 21.14 20,400
2004 2004-06-30 21.67 24,100
2005 2004-12-10 20.52 16,600
2006 2006-02-26 20.51 16,500
2007 2007-01-06 20.49 16,400
2008 2008-04-06 19.17 10,200
2009 2009-01-08 21.67 22,100
2010 2009-10-15 22.02 24,500
2011 2011-04-18 20.90 17,600
2012 2012-03-26 18.93 9,450
2013 2013-01-17 20.36 14,900
2014 2014-04-08 21.15 19,000
2015 2015-04-20 20.61 16,100
2016 2016-03-14 20.78 17,000
2017 2017-04-06 19.92 11,200
2018 2018-02-11 21.30 17,700
2019 2019-02-22 24.15 38,900
2020 2020-02-13 25.41 49,100
2021 2021-06-11 24.53 39,400
?
  Peak Gage-Height Qualification Codes.
?
  Peak Streamflow Qualification Codes.